sensor_id;sensor_type;location;lat;lon;timestamp;temperature;humidity
13652;DHT22;6899;51.546;6.912;2022-12-29T00:00:16;9.70;99.90
13652;DHT22;6899;51.546;6.912;2022-12-29T00:02:43;9.70;99.90
13652;DHT22;6899;51.546;6.912;2022-12-29T00:05:10;9.70;99.90
13652;DHT22;6899;51.546;6.912;2022-12-29T00:07:39;9.70;99.90
13652;DHT22;6899;51.546;6.912;2022-12-29T00:10:06;9.70;99.90
13652;DHT22;6899;51.546;6.912;2022-12-29T00:12:33;9.70;99.90
13652;DHT22;6899;51.546;6.912;2022-12-29T00:15:14;9.60;99.90
13652;DHT22;6899;51.546;6.912;2022-12-29T00:17:58;9.60;99.90
13652;DHT22;6899;51.546;6.912;2022-12-29T00:20:25;9.70;99.90
13652;DHT22;6899;51.546;6.912;2022-12-29T00:23:11;9.70;99.90
13652;DHT22;6899;51.546;6.912;2022-12-29T00:25:55;9.60;99.90
13652;DHT22;6899;51.546;6.912;2022-12-29T00:28:39;9.60;99.90
13652;DHT22;6899;51.546;6.912;2022-12-29T00:31:24;9.60;99.90
13652;DHT22;6899;51.546;6.912;2022-12-29T00:34:10;9.60;99.90
13652;DHT22;6899;51.546;6.912;2022-12-29T00:36:55;9.50;99.90
13652;DHT22;6899;51.546;6.912;2022-12-29T00:39:24;9.50;99.90
13652;DHT22;6899;51.546;6.912;2022-12-29T00:42:09;9.50;99.90
13652;DHT22;6899;51.546;6.912;2022-12-29T00:44:53;9.50;99.90
13652;DHT22;6899;51.546;6.912;2022-12-29T00:47:20;9.50;99.90
13652;DHT22;6899;51.546;6.912;2022-12-29T00:49:47;9.50;99.90
13652;DHT22;6899;51.546;6.912;2022-12-29T00:52:13;9.60;99.90
13652;DHT22;6899;51.546;6.912;2022-12-29T00:54:41;9.50;99.90
13652;DHT22;6899;51.546;6.912;2022-12-29T00:57:10;9.60;99.90
13652;DHT22;6899;51.546;6.912;2022-12-29T00:59:38;9.60;99.90
13652;DHT22;6899;51.546;6.912;2022-12-29T01:02:06;9.60;99.90
13652;DHT22;6899;51.546;6.912;2022-12-29T01:04:33;9.60;99.90
13652;DHT22;6899;51.546;6.912;2022-12-29T01:07:00;9.60;99.90
13652;DHT22;6899;51.546;6.912;2022-12-29T01:09:27;9.60;99.90
13652;DHT22;6899;51.546;6.912;2022-12-29T01:12:15;9.60;99.90
13652;DHT22;6899;51.546;6.912;2022-12-29T01:15:03;9.60;99.90
13652;DHT22;6899;51.546;6.912;2022-12-29T01:17:30;9.60;99.90
13652;DHT22;6899;51.546;6.912;2022-12-29T01:19:56;9.60;99.90
13652;DHT22;6899;51.546;6.912;2022-12-29T01:22:23;9.50;99.90
13652;DHT22;6899;51.546;6.912;2022-12-29T01:24:50;9.60;99.90
13652;DHT22;6899;51.546;6.912;2022-12-29T01:27:18;9.60;99.90
13652;DHT22;6899;51.546;6.912;2022-12-29T01:29:45;9.60;99.90
13652;DHT22;6899;51.546;6.912;2022-12-29T01:32:15;9.60;99.90
13652;DHT22;6899;51.546;6.912;2022-12-29T01:34:42;9.60;99.90
13652;DHT22;6899;51.546;6.912;2022-12-29T01:37:09;9.70;99.90
13652;DHT22;6899;51.546;6.912;2022-12-29T01:39:36;9.70;99.90
13652;DHT22;6899;51.546;6.912;2022-12-29T01:42:03;9.70;99.90
13652;DHT22;6899;51.546;6.912;2022-12-29T01:44:49;9.70;99.90
13652;DHT22;6899;51.546;6.912;2022-12-29T01:47:22;9.80;99.90
13652;DHT22;6899;51.546;6.912;2022-12-29T01:49:51;9.80;99.90
13652;DHT22;6899;51.546;6.912;2022-12-29T01:52:19;9.90;99.90
13652;DHT22;6899;51.546;6.912;2022-12-29T01:54:50;10.00;99.90
13652;DHT22;6899;51.546;6.912;2022-12-29T01:57:20;10.00;99.90
13652;DHT22;6899;51.546;6.912;2022-12-29T01:59:53;10.00;99.90
13652;DHT22;6899;51.546;6.912;2022-12-29T02:02:21;10.10;99.90
13652;DHT22;6899;51.546;6.912;2022-12-29T02:04:55;10.20;99.90
13652;DHT22;6899;51.546;6.912;2022-12-29T02:07:26;10.20;99.90
13652;DHT22;6899;51.546;6.912;2022-12-29T02:09:55;10.20;99.90
13652;DHT22;6899;51.546;6.912;2022-12-29T02:12:23;10.20;99.90
13652;DHT22;6899;51.546;6.912;2022-12-29T02:14:55;10.20;99.90
13652;DHT22;6899;51.546;6.912;2022-12-29T02:17:39;10.30;99.90
13652;DHT22;6899;51.546;6.912;2022-12-29T02:26:28;10.30;99.90
13652;DHT22;6899;51.546;6.912;2022-12-29T02:29:21;10.30;99.90
13652;DHT22;6899;51.546;6.912;2022-12-29T02:31:59;10.30;99.90
13652;DHT22;6899;51.546;6.912;2022-12-29T02:34:36;10.30;99.90
13652;DHT22;6899;51.546;6.912;2022-12-29T02:37:08;10.30;99.90
13652;DHT22;6899;51.546;6.912;2022-12-29T02:39:41;10.20;99.90
13652;DHT22;6899;51.546;6.912;2022-12-29T02:42:13;10.30;99.90
13652;DHT22;6899;51.546;6.912;2022-12-29T02:44:50;10.40;99.90
13652;DHT22;6899;51.546;6.912;2022-12-29T02:47:24;10.40;99.90
13652;DHT22;6899;51.546;6.912;2022-12-29T02:49:59;10.40;99.90
13652;DHT22;6899;51.546;6.912;2022-12-29T02:52:33;10.40;99.90
13652;DHT22;6899;51.546;6.912;2022-12-29T02:55:01;10.50;99.90
13652;DHT22;6899;51.546;6.912;2022-12-29T02:57:29;10.50;99.90
13652;DHT22;6899;51.546;6.912;2022-12-29T03:00:00;10.50;99.90
13652;DHT22;6899;51.546;6.912;2022-12-29T03:02:48;10.60;99.90
13652;DHT22;6899;51.546;6.912;2022-12-29T03:05:26;10.60;99.90
13652;DHT22;6899;51.546;6.912;2022-12-29T03:08:04;10.60;99.90
13652;DHT22;6899;51.546;6.912;2022-12-29T03:10:40;10.60;99.90
13652;DHT22;6899;51.546;6.912;2022-12-29T03:13:17;10.70;99.90
13652;DHT22;6899;51.546;6.912;2022-12-29T03:16:13;10.70;99.90
13652;DHT22;6899;51.546;6.912;2022-12-29T03:18:47;10.70;99.90
13652;DHT22;6899;51.546;6.912;2022-12-29T03:21:21;10.60;99.90
13652;DHT22;6899;51.546;6.912;2022-12-29T03:24:10;10.50;99.90
13652;DHT22;6899;51.546;6.912;2022-12-29T03:26:37;10.40;99.90
13652;DHT22;6899;51.546;6.912;2022-12-29T03:29:05;10.40;99.90
13652;DHT22;6899;51.546;6.912;2022-12-29T03:31:34;10.40;99.90
13652;DHT22;6899;51.546;6.912;2022-12-29T03:34:04;10.40;99.90
13652;DHT22;6899;51.546;6.912;2022-12-29T03:36:38;10.30;99.90
13652;DHT22;6899;51.546;6.912;2022-12-29T03:39:10;10.30;99.90
13652;DHT22;6899;51.546;6.912;2022-12-29T03:41:39;10.20;99.90
13652;DHT22;6899;51.546;6.912;2022-12-29T03:44:07;10.20;99.90
13652;DHT22;6899;51.546;6.912;2022-12-29T03:46:33;10.20;99.90
13652;DHT22;6899;51.546;6.912;2022-12-29T03:49:00;10.30;99.90
13652;DHT22;6899;51.546;6.912;2022-12-29T03:51:28;10.30;99.90
13652;DHT22;6899;51.546;6.912;2022-12-29T03:53:55;10.50;99.90
13652;DHT22;6899;51.546;6.912;2022-12-29T03:56:22;10.40;99.90
13652;DHT22;6899;51.546;6.912;2022-12-29T03:58:49;10.50;99.90
13652;DHT22;6899;51.546;6.912;2022-12-29T04:01:16;10.60;99.90
13652;DHT22;6899;51.546;6.912;2022-12-29T04:03:43;10.50;99.90
13652;DHT22;6899;51.546;6.912;2022-12-29T04:06:09;10.50;99.90
13652;DHT22;6899;51.546;6.912;2022-12-29T04:08:38;10.40;99.90
13652;DHT22;6899;51.546;6.912;2022-12-29T04:11:05;10.40;99.90
13652;DHT22;6899;51.546;6.912;2022-12-29T04:13:32;10.40;99.90
13652;DHT22;6899;51.546;6.912;2022-12-29T04:15:59;10.50;99.90
13652;DHT22;6899;51.546;6.912;2022-12-29T04:18:26;10.50;99.90
13652;DHT22;6899;51.546;6.912;2022-12-29T04:20:53;10.40;99.90
13652;DHT22;6899;51.546;6.912;2022-12-29T04:23:26;10.30;99.90
13652;DHT22;6899;51.546;6.912;2022-12-29T04:25:54;10.40;99.90
13652;DHT22;6899;51.546;6.912;2022-12-29T04:28:21;10.30;99.90
13652;DHT22;6899;51.546;6.912;2022-12-29T04:30:48;10.30;99.90
13652;DHT22;6899;51.546;6.912;2022-12-29T04:33:15;10.30;99.90
13652;DHT22;6899;51.546;6.912;2022-12-29T04:35:43;10.20;99.90
13652;DHT22;6899;51.546;6.912;2022-12-29T04:38:10;10.30;99.90
13652;DHT22;6899;51.546;6.912;2022-12-29T04:40:38;10.40;99.90
13652;DHT22;6899;51.546;6.912;2022-12-29T04:43:07;10.50;99.90
13652;DHT22;6899;51.546;6.912;2022-12-29T04:45:34;10.60;99.90
13652;DHT22;6899;51.546;6.912;2022-12-29T04:48:01;10.60;99.90
13652;DHT22;6899;51.546;6.912;2022-12-29T04:50:27;10.60;99.90
13652;DHT22;6899;51.546;6.912;2022-12-29T04:52:54;10.60;99.90
13652;DHT22;6899;51.546;6.912;2022-12-29T04:55:21;10.60;99.90
13652;DHT22;6899;51.546;6.912;2022-12-29T04:57:48;10.60;99.90
13652;DHT22;6899;51.546;6.912;2022-12-29T05:00:17;10.50;99.90
13652;DHT22;6899;51.546;6.912;2022-12-29T05:02:44;10.70;99.90
13652;DHT22;6899;51.546;6.912;2022-12-29T05:05:11;10.80;99.90
13652;DHT22;6899;51.546;6.912;2022-12-29T05:07:38;10.90;99.90
13652;DHT22;6899;51.546;6.912;2022-12-29T05:10:06;10.90;99.90
13652;DHT22;6899;51.546;6.912;2022-12-29T05:12:34;10.90;99.90
13652;DHT22;6899;51.546;6.912;2022-12-29T05:15:02;10.90;99.90
13652;DHT22;6899;51.546;6.912;2022-12-29T05:17:30;10.80;99.90
13652;DHT22;6899;51.546;6.912;2022-12-29T05:19:57;10.40;99.90
13652;DHT22;6899;51.546;6.912;2022-12-29T05:22:24;10.10;99.90
13652;DHT22;6899;51.546;6.912;2022-12-29T05:24:51;9.80;99.90
13652;DHT22;6899;51.546;6.912;2022-12-29T05:27:18;9.60;99.90
13652;DHT22;6899;51.546;6.912;2022-12-29T05:29:45;9.50;99.90
13652;DHT22;6899;51.546;6.912;2022-12-29T05:32:11;9.40;99.90
13652;DHT22;6899;51.546;6.912;2022-12-29T05:34:40;9.30;99.90
13652;DHT22;6899;51.546;6.912;2022-12-29T05:37:07;9.20;99.90
13652;DHT22;6899;51.546;6.912;2022-12-29T05:39:33;9.00;99.90
13652;DHT22;6899;51.546;6.912;2022-12-29T05:42:00;8.90;99.90
13652;DHT22;6899;51.546;6.912;2022-12-29T05:44:27;8.80;99.90
13652;DHT22;6899;51.546;6.912;2022-12-29T05:46:54;8.80;99.90
13652;DHT22;6899;51.546;6.912;2022-12-29T05:49:21;8.80;99.90
13652;DHT22;6899;51.546;6.912;2022-12-29T05:51:49;8.70;99.90
13652;DHT22;6899;51.546;6.912;2022-12-29T05:54:16;8.80;99.90
13652;DHT22;6899;51.546;6.912;2022-12-29T05:56:43;8.70;99.90
13652;DHT22;6899;51.546;6.912;2022-12-29T05:59:10;8.60;99.90
13652;DHT22;6899;51.546;6.912;2022-12-29T06:01:37;8.60;99.90
13652;DHT22;6899;51.546;6.912;2022-12-29T06:04:03;8.80;99.90
13652;DHT22;6899;51.546;6.912;2022-12-29T06:06:30;8.80;99.90
13652;DHT22;6899;51.546;6.912;2022-12-29T06:08:59;8.90;99.90
13652;DHT22;6899;51.546;6.912;2022-12-29T06:11:25;8.90;99.90
13652;DHT22;6899;51.546;6.912;2022-12-29T06:13:52;8.90;99.90
13652;DHT22;6899;51.546;6.912;2022-12-29T06:16:19;8.80;99.90
13652;DHT22;6899;51.546;6.912;2022-12-29T06:18:46;8.90;99.90
13652;DHT22;6899;51.546;6.912;2022-12-29T06:21:13;8.90;99.90
13652;DHT22;6899;51.546;6.912;2022-12-29T06:23:40;8.90;99.90
13652;DHT22;6899;51.546;6.912;2022-12-29T06:26:08;9.10;99.90
13652;DHT22;6899;51.546;6.912;2022-12-29T06:28:35;9.10;99.90
13652;DHT22;6899;51.546;6.912;2022-12-29T06:31:02;9.20;99.90
13652;DHT22;6899;51.546;6.912;2022-12-29T06:33:29;9.20;99.90
13652;DHT22;6899;51.546;6.912;2022-12-29T06:35:56;9.40;99.90
13652;DHT22;6899;51.546;6.912;2022-12-29T06:38:22;9.40;99.90
13652;DHT22;6899;51.546;6.912;2022-12-29T06:40:49;9.50;99.90
13652;DHT22;6899;51.546;6.912;2022-12-29T06:43:18;9.50;99.90
13652;DHT22;6899;51.546;6.912;2022-12-29T06:45:45;9.50;99.90
13652;DHT22;6899;51.546;6.912;2022-12-29T06:48:12;9.50;99.90
13652;DHT22;6899;51.546;6.912;2022-12-29T06:50:39;9.40;99.90
13652;DHT22;6899;51.546;6.912;2022-12-29T06:53:05;9.50;99.90
13652;DHT22;6899;51.546;6.912;2022-12-29T06:55:32;9.50;99.90
13652;DHT22;6899;51.546;6.912;2022-12-29T06:57:59;9.40;99.90
13652;DHT22;6899;51.546;6.912;2022-12-29T07:00:28;9.60;99.90
13652;DHT22;6899;51.546;6.912;2022-12-29T07:02:55;9.60;99.90
13652;DHT22;6899;51.546;6.912;2022-12-29T07:05:23;9.70;99.90
13652;DHT22;6899;51.546;6.912;2022-12-29T07:07:51;9.70;99.90
13652;DHT22;6899;51.546;6.912;2022-12-29T07:10:18;9.80;99.90
13652;DHT22;6899;51.546;6.912;2022-12-29T07:12:45;9.80;99.90
13652;DHT22;6899;51.546;6.912;2022-12-29T07:15:11;9.80;99.90
13652;DHT22;6899;51.546;6.912;2022-12-29T07:17:40;9.70;99.90
13652;DHT22;6899;51.546;6.912;2022-12-29T07:20:08;9.70;99.90
13652;DHT22;6899;51.546;6.912;2022-12-29T07:22:35;9.60;99.90
13652;DHT22;6899;51.546;6.912;2022-12-29T07:25:02;9.50;99.90
13652;DHT22;6899;51.546;6.912;2022-12-29T07:27:29;9.60;99.90
13652;DHT22;6899;51.546;6.912;2022-12-29T07:29:56;9.80;99.90
13652;DHT22;6899;51.546;6.912;2022-12-29T07:32:23;9.90;99.90
13652;DHT22;6899;51.546;6.912;2022-12-29T07:34:51;9.90;99.90
13652;DHT22;6899;51.546;6.912;2022-12-29T07:37:18;9.90;99.90
13652;DHT22;6899;51.546;6.912;2022-12-29T07:39:45;9.90;99.90
13652;DHT22;6899;51.546;6.912;2022-12-29T07:42:12;10.00;99.90
13652;DHT22;6899;51.546;6.912;2022-12-29T07:44:39;10.10;99.90
13652;DHT22;6899;51.546;6.912;2022-12-29T07:47:06;10.00;99.90
13652;DHT22;6899;51.546;6.912;2022-12-29T07:49:33;9.90;99.90
13652;DHT22;6899;51.546;6.912;2022-12-29T07:52:01;9.90;99.90
13652;DHT22;6899;51.546;6.912;2022-12-29T07:54:28;9.90;99.90
13652;DHT22;6899;51.546;6.912;2022-12-29T07:56:55;10.00;99.90
13652;DHT22;6899;51.546;6.912;2022-12-29T07:59:23;10.10;99.90
13652;DHT22;6899;51.546;6.912;2022-12-29T08:01:50;10.10;99.90
13652;DHT22;6899;51.546;6.912;2022-12-29T08:04:16;10.10;99.90
13652;DHT22;6899;51.546;6.912;2022-12-29T08:06:43;10.10;99.90
13652;DHT22;6899;51.546;6.912;2022-12-29T08:09:12;10.00;99.90
13652;DHT22;6899;51.546;6.912;2022-12-29T08:11:39;9.90;99.90
13652;DHT22;6899;51.546;6.912;2022-12-29T08:14:07;10.00;99.90
13652;DHT22;6899;51.546;6.912;2022-12-29T08:16:34;9.90;99.90
13652;DHT22;6899;51.546;6.912;2022-12-29T08:19:01;9.80;99.90
13652;DHT22;6899;51.546;6.912;2022-12-29T08:21:29;9.80;99.90
13652;DHT22;6899;51.546;6.912;2022-12-29T08:23:56;9.80;99.90
13652;DHT22;6899;51.546;6.912;2022-12-29T08:26:25;9.90;99.90
13652;DHT22;6899;51.546;6.912;2022-12-29T08:28:52;10.10;99.90
13652;DHT22;6899;51.546;6.912;2022-12-29T08:31:20;10.20;99.90
13652;DHT22;6899;51.546;6.912;2022-12-29T08:33:46;10.20;99.90
13652;DHT22;6899;51.546;6.912;2022-12-29T08:36:13;10.10;99.90
13652;DHT22;6899;51.546;6.912;2022-12-29T08:38:40;10.00;99.90
13652;DHT22;6899;51.546;6.912;2022-12-29T08:41:07;10.10;99.90
13652;DHT22;6899;51.546;6.912;2022-12-29T08:43:36;10.20;99.90
13652;DHT22;6899;51.546;6.912;2022-12-29T08:46:03;10.10;99.90
13652;DHT22;6899;51.546;6.912;2022-12-29T08:48:31;10.00;99.90
13652;DHT22;6899;51.546;6.912;2022-12-29T08:50:58;10.00;99.90
13652;DHT22;6899;51.546;6.912;2022-12-29T08:53:25;10.00;99.90
13652;DHT22;6899;51.546;6.912;2022-12-29T08:55:56;10.00;99.90
13652;DHT22;6899;51.546;6.912;2022-12-29T08:58:23;10.10;99.90
13652;DHT22;6899;51.546;6.912;2022-12-29T09:00:54;10.20;99.90
13652;DHT22;6899;51.546;6.912;2022-12-29T09:03:21;10.30;99.90
13652;DHT22;6899;51.546;6.912;2022-12-29T09:05:48;10.40;99.90
13652;DHT22;6899;51.546;6.912;2022-12-29T09:08:16;10.60;99.90
13652;DHT22;6899;51.546;6.912;2022-12-29T09:10:42;10.80;99.90
13652;DHT22;6899;51.546;6.912;2022-12-29T09:13:10;11.00;99.90
13652;DHT22;6899;51.546;6.912;2022-12-29T09:15:37;11.20;99.90
13652;DHT22;6899;51.546;6.912;2022-12-29T09:18:05;11.30;99.90
13652;DHT22;6899;51.546;6.912;2022-12-29T09:20:33;11.20;99.90
13652;DHT22;6899;51.546;6.912;2022-12-29T09:23:00;11.10;99.90
13652;DHT22;6899;51.546;6.912;2022-12-29T09:25:27;11.10;99.90
13652;DHT22;6899;51.546;6.912;2022-12-29T09:27:54;11.10;99.90
13652;DHT22;6899;51.546;6.912;2022-12-29T09:30:22;11.00;99.90
13652;DHT22;6899;51.546;6.912;2022-12-29T09:32:49;10.90;99.90
13652;DHT22;6899;51.546;6.912;2022-12-29T09:35:18;10.90;99.90
13652;DHT22;6899;51.546;6.912;2022-12-29T09:37:45;10.80;99.90
13652;DHT22;6899;51.546;6.912;2022-12-29T09:40:25;10.80;99.90
13652;DHT22;6899;51.546;6.912;2022-12-29T09:43:07;10.80;99.90
13652;DHT22;6899;51.546;6.912;2022-12-29T09:45:42;10.80;99.90
13652;DHT22;6899;51.546;6.912;2022-12-29T09:48:16;10.80;99.90
13652;DHT22;6899;51.546;6.912;2022-12-29T09:50:48;10.80;99.90
13652;DHT22;6899;51.546;6.912;2022-12-29T09:53:21;10.80;99.90
13652;DHT22;6899;51.546;6.912;2022-12-29T09:55:51;10.80;99.90
13652;DHT22;6899;51.546;6.912;2022-12-29T09:58:23;10.80;99.90
13652;DHT22;6899;51.546;6.912;2022-12-29T10:00:56;10.80;99.90
13652;DHT22;6899;51.546;6.912;2022-12-29T10:03:27;10.80;99.90
13652;DHT22;6899;51.546;6.912;2022-12-29T10:06:08;10.90;99.90
13652;DHT22;6899;51.546;6.912;2022-12-29T10:08:39;10.90;99.90
13652;DHT22;6899;51.546;6.912;2022-12-29T10:11:16;11.00;99.90
13652;DHT22;6899;51.546;6.912;2022-12-29T10:14:00;11.00;99.90
13652;DHT22;6899;51.546;6.912;2022-12-29T10:16:34;11.20;99.90
13652;DHT22;6899;51.546;6.912;2022-12-29T10:19:18;11.20;99.90
13652;DHT22;6899;51.546;6.912;2022-12-29T10:21:59;11.30;99.90
13652;DHT22;6899;51.546;6.912;2022-12-29T10:24:29;11.50;99.90
13652;DHT22;6899;51.546;6.912;2022-12-29T10:26:58;11.50;99.90
13652;DHT22;6899;51.546;6.912;2022-12-29T10:29:29;11.30;99.90
13652;DHT22;6899;51.546;6.912;2022-12-29T10:32:00;11.20;99.90
13652;DHT22;6899;51.546;6.912;2022-12-29T10:34:31;11.10;99.90
13652;DHT22;6899;51.546;6.912;2022-12-29T10:37:05;11.00;99.90
13652;DHT22;6899;51.546;6.912;2022-12-29T10:39:40;11.00;99.90
13652;DHT22;6899;51.546;6.912;2022-12-29T10:42:13;11.10;99.90
13652;DHT22;6899;51.546;6.912;2022-12-29T10:44:42;11.10;99.90
13652;DHT22;6899;51.546;6.912;2022-12-29T10:47:13;11.10;99.90
13652;DHT22;6899;51.546;6.912;2022-12-29T10:49:42;11.10;99.90
13652;DHT22;6899;51.546;6.912;2022-12-29T10:52:14;11.10;99.90
13652;DHT22;6899;51.546;6.912;2022-12-29T10:54:46;11.10;99.90
13652;DHT22;6899;51.546;6.912;2022-12-29T10:57:20;11.10;99.90
13652;DHT22;6899;51.546;6.912;2022-12-29T10:59:49;11.10;99.90
13652;DHT22;6899;51.546;6.912;2022-12-29T11:02:40;11.00;99.90
13652;DHT22;6899;51.546;6.912;2022-12-29T11:05:16;11.00;99.90
13652;DHT22;6899;51.546;6.912;2022-12-29T11:07:49;11.00;99.90
13652;DHT22;6899;51.546;6.912;2022-12-29T11:10:19;11.00;99.90
13652;DHT22;6899;51.546;6.912;2022-12-29T11:12:57;10.90;99.90
13652;DHT22;6899;51.546;6.912;2022-12-29T11:15:25;10.90;99.90
13652;DHT22;6899;51.546;6.912;2022-12-29T11:17:56;10.90;99.90
13652;DHT22;6899;51.546;6.912;2022-12-29T11:20:33;11.00;99.90
13652;DHT22;6899;51.546;6.912;2022-12-29T11:23:02;11.10;99.90
13652;DHT22;6899;51.546;6.912;2022-12-29T11:25:29;11.10;99.90
13652;DHT22;6899;51.546;6.912;2022-12-29T11:27:59;11.10;99.90
13652;DHT22;6899;51.546;6.912;2022-12-29T11:30:28;11.10;99.90
13652;DHT22;6899;51.546;6.912;2022-12-29T11:32:57;11.10;99.90
13652;DHT22;6899;51.546;6.912;2022-12-29T11:35:32;11.10;99.90
13652;DHT22;6899;51.546;6.912;2022-12-29T11:38:02;11.10;99.90
13652;DHT22;6899;51.546;6.912;2022-12-29T11:40:29;11.20;99.90
13652;DHT22;6899;51.546;6.912;2022-12-29T11:42:59;11.30;99.90
13652;DHT22;6899;51.546;6.912;2022-12-29T11:45:30;11.20;99.90
13652;DHT22;6899;51.546;6.912;2022-12-29T11:48:01;11.20;99.90
13652;DHT22;6899;51.546;6.912;2022-12-29T11:50:33;11.10;99.90
13652;DHT22;6899;51.546;6.912;2022-12-29T11:53:04;11.10;99.90
13652;DHT22;6899;51.546;6.912;2022-12-29T11:55:32;11.10;99.90
13652;DHT22;6899;51.546;6.912;2022-12-29T11:58:02;11.00;99.90
13652;DHT22;6899;51.546;6.912;2022-12-29T12:00:33;11.00;99.90
13652;DHT22;6899;51.546;6.912;2022-12-29T12:03:02;11.00;99.90
13652;DHT22;6899;51.546;6.912;2022-12-29T12:05:37;11.00;99.90
13652;DHT22;6899;51.546;6.912;2022-12-29T12:08:13;11.00;99.90
13652;DHT22;6899;51.546;6.912;2022-12-29T12:10:46;11.00;99.90
13652;DHT22;6899;51.546;6.912;2022-12-29T12:13:23;11.10;99.90
13652;DHT22;6899;51.546;6.912;2022-12-29T12:15:57;11.10;99.90
13652;DHT22;6899;51.546;6.912;2022-12-29T12:18:40;11.10;99.90
13652;DHT22;6899;51.546;6.912;2022-12-29T12:21:18;11.10;99.90
13652;DHT22;6899;51.546;6.912;2022-12-29T12:24:16;11.10;99.90
13652;DHT22;6899;51.546;6.912;2022-12-29T12:26:55;11.00;99.90
13652;DHT22;6899;51.546;6.912;2022-12-29T12:29:28;11.00;99.90
13652;DHT22;6899;51.546;6.912;2022-12-29T12:32:02;11.00;99.90
13652;DHT22;6899;51.546;6.912;2022-12-29T12:34:35;11.00;99.90
13652;DHT22;6899;51.546;6.912;2022-12-29T12:40:13;10.90;99.90
13652;DHT22;6899;51.546;6.912;2022-12-29T12:42:47;10.90;99.90
13652;DHT22;6899;51.546;6.912;2022-12-29T12:45:44;10.90;99.90
13652;DHT22;6899;51.546;6.912;2022-12-29T12:48:33;10.90;99.90
13652;DHT22;6899;51.546;6.912;2022-12-29T12:51:10;10.80;99.90
13652;DHT22;6899;51.546;6.912;2022-12-29T12:53:53;10.80;99.90
13652;DHT22;6899;51.546;6.912;2022-12-29T12:56:46;10.90;99.90
13652;DHT22;6899;51.546;6.912;2022-12-29T12:59:26;11.00;99.90
13652;DHT22;6899;51.546;6.912;2022-12-29T13:02:01;10.90;99.90
13652;DHT22;6899;51.546;6.912;2022-12-29T13:04:48;10.90;99.90
13652;DHT22;6899;51.546;6.912;2022-12-29T13:07:30;10.90;99.90
13652;DHT22;6899;51.546;6.912;2022-12-29T13:10:16;10.90;99.90
13652;DHT22;6899;51.546;6.912;2022-12-29T13:12:51;10.80;99.90
13652;DHT22;6899;51.546;6.912;2022-12-29T13:15:32;11.00;99.90
13652;DHT22;6899;51.546;6.912;2022-12-29T13:18:10;11.00;99.90
13652;DHT22;6899;51.546;6.912;2022-12-29T13:20:42;11.10;99.90
13652;DHT22;6899;51.546;6.912;2022-12-29T13:23:19;11.10;99.90
13652;DHT22;6899;51.546;6.912;2022-12-29T13:25:53;11.20;99.90
13652;DHT22;6899;51.546;6.912;2022-12-29T13:28:27;11.10;99.90
13652;DHT22;6899;51.546;6.912;2022-12-29T13:31:00;11.00;99.90
13652;DHT22;6899;51.546;6.912;2022-12-29T13:33:35;11.10;99.90
13652;DHT22;6899;51.546;6.912;2022-12-29T13:36:05;11.20;99.90
13652;DHT22;6899;51.546;6.912;2022-12-29T13:38:36;11.10;99.90
13652;DHT22;6899;51.546;6.912;2022-12-29T13:41:07;11.00;99.90
13652;DHT22;6899;51.546;6.912;2022-12-29T13:43:38;10.90;99.90
13652;DHT22;6899;51.546;6.912;2022-12-29T13:46:10;10.90;99.90
13652;DHT22;6899;51.546;6.912;2022-12-29T13:48:42;11.10;99.90
13652;DHT22;6899;51.546;6.912;2022-12-29T13:51:10;11.20;99.90
13652;DHT22;6899;51.546;6.912;2022-12-29T13:53:53;11.20;99.90
13652;DHT22;6899;51.546;6.912;2022-12-29T13:56:25;11.10;99.90
13652;DHT22;6899;51.546;6.912;2022-12-29T13:59:02;11.10;99.90
13652;DHT22;6899;51.546;6.912;2022-12-29T14:01:34;11.10;99.90
13652;DHT22;6899;51.546;6.912;2022-12-29T14:04:03;11.00;99.90
13652;DHT22;6899;51.546;6.912;2022-12-29T14:06:36;10.90;99.90
13652;DHT22;6899;51.546;6.912;2022-12-29T14:09:26;10.90;99.90
13652;DHT22;6899;51.546;6.912;2022-12-29T14:11:54;10.80;99.90
13652;DHT22;6899;51.546;6.912;2022-12-29T14:14:24;10.50;99.90
13652;DHT22;6899;51.546;6.912;2022-12-29T14:16:52;10.20;99.90
13652;DHT22;6899;51.546;6.912;2022-12-29T14:19:22;10.10;99.90
13652;DHT22;6899;51.546;6.912;2022-12-29T14:21:52;10.00;99.90
13652;DHT22;6899;51.546;6.912;2022-12-29T14:24:35;10.00;99.90
13652;DHT22;6899;51.546;6.912;2022-12-29T14:30:46;9.70;99.90
13652;DHT22;6899;51.546;6.912;2022-12-29T14:33:14;9.60;99.90
13652;DHT22;6899;51.546;6.912;2022-12-29T14:35:43;9.60;99.90
13652;DHT22;6899;51.546;6.912;2022-12-29T14:38:17;9.50;99.90
13652;DHT22;6899;51.546;6.912;2022-12-29T14:40:45;9.50;99.90
13652;DHT22;6899;51.546;6.912;2022-12-29T14:43:16;9.50;99.90
13652;DHT22;6899;51.546;6.912;2022-12-29T14:45:52;9.60;99.90
13652;DHT22;6899;51.546;6.912;2022-12-29T14:51:18;9.70;99.90
13652;DHT22;6899;51.546;6.912;2022-12-29T14:53:47;9.70;99.90
13652;DHT22;6899;51.546;6.912;2022-12-29T14:56:16;9.80;99.90
13652;DHT22;6899;51.546;6.912;2022-12-29T14:58:50;9.80;99.90
13652;DHT22;6899;51.546;6.912;2022-12-29T15:01:24;9.90;99.90
13652;DHT22;6899;51.546;6.912;2022-12-29T15:03:56;9.90;99.90
13652;DHT22;6899;51.546;6.912;2022-12-29T15:06:27;9.90;99.90
13652;DHT22;6899;51.546;6.912;2022-12-29T15:09:00;10.00;99.90
13652;DHT22;6899;51.546;6.912;2022-12-29T15:11:42;10.00;99.90
13652;DHT22;6899;51.546;6.912;2022-12-29T15:14:29;10.00;99.90
13652;DHT22;6899;51.546;6.912;2022-12-29T15:16:57;10.00;99.90
13652;DHT22;6899;51.546;6.912;2022-12-29T15:19:26;10.00;99.90
13652;DHT22;6899;51.546;6.912;2022-12-29T15:21:54;10.10;99.90
13652;DHT22;6899;51.546;6.912;2022-12-29T15:24:24;10.00;99.90
13652;DHT22;6899;51.546;6.912;2022-12-29T15:26:53;10.00;99.90
13652;DHT22;6899;51.546;6.912;2022-12-29T15:29:37;10.00;99.90
13652;DHT22;6899;51.546;6.912;2022-12-29T15:32:19;10.00;99.90
13652;DHT22;6899;51.546;6.912;2022-12-29T15:34:47;10.00;99.90
13652;DHT22;6899;51.546;6.912;2022-12-29T15:37:18;10.00;99.90
13652;DHT22;6899;51.546;6.912;2022-12-29T15:39:45;10.00;99.90
13652;DHT22;6899;51.546;6.912;2022-12-29T15:42:27;10.00;99.90
13652;DHT22;6899;51.546;6.912;2022-12-29T15:44:56;9.90;99.90
13652;DHT22;6899;51.546;6.912;2022-12-29T15:47:26;9.90;99.90
13652;DHT22;6899;51.546;6.912;2022-12-29T15:50:01;9.70;99.90
13652;DHT22;6899;51.546;6.912;2022-12-29T15:52:29;9.70;99.90
13652;DHT22;6899;51.546;6.912;2022-12-29T15:54:58;9.60;99.90
13652;DHT22;6899;51.546;6.912;2022-12-29T15:57:28;9.60;99.90
13652;DHT22;6899;51.546;6.912;2022-12-29T15:59:55;9.60;99.90
13652;DHT22;6899;51.546;6.912;2022-12-29T16:02:27;9.70;99.90
13652;DHT22;6899;51.546;6.912;2022-12-29T16:04:54;9.70;99.90
13652;DHT22;6899;51.546;6.912;2022-12-29T16:07:25;9.70;99.90
13652;DHT22;6899;51.546;6.912;2022-12-29T16:09:57;9.70;99.90
13652;DHT22;6899;51.546;6.912;2022-12-29T16:12:26;9.70;99.90
13652;DHT22;6899;51.546;6.912;2022-12-29T16:14:58;9.70;99.90
13652;DHT22;6899;51.546;6.912;2022-12-29T16:17:29;9.80;99.90
13652;DHT22;6899;51.546;6.912;2022-12-29T16:19:58;9.80;99.90
13652;DHT22;6899;51.546;6.912;2022-12-29T16:22:30;9.80;99.90
13652;DHT22;6899;51.546;6.912;2022-12-29T16:25:00;9.80;99.90
13652;DHT22;6899;51.546;6.912;2022-12-29T16:27:32;9.80;99.90
13652;DHT22;6899;51.546;6.912;2022-12-29T16:30:04;9.80;99.90
13652;DHT22;6899;51.546;6.912;2022-12-29T16:32:33;9.70;99.90